Latest Weather Observations for Bundaberg

IDQ60801

Issued at 4:02 am EST Thursday 18 October 2018 (issued every 10 minutes, with the page automatically refreshed every 10 minutes)

About weather observations | Map of weather stations | Latest weather observations for QLD | Other Formats
Station Details ID: 039128 Name: BUNDABERG AERO Lat: -24.91 Lon: 152.32 Height: 30.82 m
Data from the previous 72 hours. | See also: Recent months at Bundaberg
Date/Time
EST
Temp
°C
App
Temp
°C
Dew
Point
°C
Rel
Hum
%
Delta-T
°C
Wind Press
QNH
hPa
Press
MSL
hPa
Rain since
9am
mm
Dir  Spd
km/h
Gust
km/h
Spd
kts
Gust
kts
18/04:00am 18.5 19.3 18.2 98 0.2 S 11 13 6 7 1015.0 1014.9 0.0
18/03:30am 18.6 19.7 18.1 97 0.3 S 9 13 5 7 1014.9 1014.8 0.0
18/03:00am 18.6 19.7 18.1 97 0.3 S 9 13 5 7 1015.1 1015.0 0.0
18/02:30am 18.8 19.7 18.3 97 0.3 SSW 11 13 6 7 1015.4 1015.3 0.0
18/02:00am 19.0 19.9 18.3 96 0.4 SSW 11 15 6 8 1015.5 1015.4 0.0
18/01:30am 19.2 20.5 18.5 96 0.4 SSW 9 11 5 6 1015.8 1015.7 0.0
18/01:00am 19.2 20.5 18.5 96 0.4 SSW 9 11 5 6 1016.0 1015.9 0.0
18/12:30am 18.9 19.7 18.1 95 0.5 S 11 15 6 8 1015.8 1015.7 0.0
18/12:00am 19.1 19.9 18.1 94 0.6 S 11 13 6 7 1015.9 1015.8 0.0
 
Date/Time
EST
Temp
°C
App
Temp
°C
Dew
Point
°C
Rel
Hum
%
Delta-T
°C
Wind Press
QNH
hPa
Press
MSL
hPa
Rain since
9am
mm
Dir  Spd
km/h
Gust
km/h
Spd
kts
Gust
kts
17/11:30pm 19.2 19.9 18.0 93 0.7 S 11 15 6 8 1015.9 1015.8 0.0
17/11:00pm 19.7 21.0 18.4 92 0.8 SSE 9 13 5 7 1016.0 1015.9 0.0
17/10:30pm 19.5 20.6 18.0 91 0.9 SE 9 13 5 7 1015.9 1015.8 0.0
17/10:00pm 20.1 21.4 18.4 90 1.1 SSE 9 13 5 7 1016.2 1016.1 0.0
17/09:30pm 19.6 21.0 17.9 90 1.0 SE 7 9 4 5 1016.4 1016.3 0.0
17/09:00pm 20.2 22.0 18.3 89 1.2 SSE 6 7 3 4 1016.3 1016.2 0.0
17/08:30pm 20.5 21.6 18.1 86 1.5 SSE 9 11 5 6 1015.9 1015.8 0.0
17/08:00pm 20.9 22.7 18.3 85 1.6 SE 6 9 3 5 1015.6 1015.5 0.0
17/07:30pm 21.4 22.3 18.4 83 1.9 ESE 11 15 6 8 1014.8 1014.7 0.0
17/07:00pm 21.8 21.9 18.4 81 2.1 ESE 15 20 8 11 1014.2 1014.1 0.0
17/06:30pm 22.2 21.5 18.2 78 2.5 ESE 19 22 10 12 1013.9 1013.8 0.0
17/06:00pm 22.7 21.9 18.0 75 2.9 ESE 19 24 10 13 1013.8 1013.7 0.0
17/05:30pm 23.6 22.4 17.6 69 3.7 ESE 20 28 11 15 1013.9 1013.8 0.0
17/05:00pm 24.4 23.0 17.1 63 4.5 ESE 20 28 11 15 1013.7 1013.6 0.0
17/04:30pm 24.6 23.3 17.3 64 4.5 E 20 28 11 15 1013.6 1013.5 0.0
17/04:00pm 25.7 24.2 17.6 61 5.1 E 22 32 12 17 1013.7 1013.6 0.0
17/03:30pm 26.1 24.0 17.2 58 5.6 E 24 32 13 17 1013.8 1013.7 0.0
17/03:00pm 25.7 24.1 17.4 60 5.2 E 22 30 12 16 1013.9 1013.8 0.0
17/02:30pm 26.1 24.2 17.7 60 5.3 E 24 30 13 16 1013.9 1013.8 0.0
17/02:00pm 26.2 24.0 17.0 57 5.7 E 24 30 13 16 1014.2 1014.1 0.0
17/01:30pm 26.6 24.0 16.8 55 6.1 E 26 35 14 19 1014.4 1014.3 0.0
17/01:00pm 26.0 24.0 17.4 59 5.4 E 24 32 13 17 1014.8 1014.7 0.0
17/12:30pm 26.9 24.5 16.5 53 6.4 E 24 35 13 19 1015.1 1015.0 0.0
17/12:00pm 26.9 24.7 15.9 51 6.7 ESE 22 32 12 17 1015.2 1015.1 0.0
17/11:30am 27.3 26.1 18.3 58 5.7 ESE 22 37 12 20 1015.7 1015.6 0.0
17/11:00am 26.7 25.1 17.5 57 5.8 ESE 22 33 12 18 1016.1 1016.0 0.0
17/10:30am 26.2 24.5 17.3 58 5.6 ESE 22 30 12 16 1016.3 1016.2 0.0
17/10:00am 26.6 25.4 18.5 61 5.2 E 22 35 12 19 1016.5 1016.4 0.0
17/09:30am 24.8 22.8 17.5 64 4.6 ESE 24 32 13 17 1016.8 1016.7 0.0
17/09:00am 25.1 22.5 17.8 64 4.6 ESE 28 39 15 21 1016.7 1016.6 1.0
17/08:30am 24.4 22.7 18.1 68 4.0 ESE 24 35 13 19 1016.5 1016.4 1.0
17/08:00am 23.0 21.5 18.5 76 2.8 SE 24 32 13 17 1016.4 1016.3 1.0
17/07:30am 21.8 20.9 19.0 84 1.8 SSE 22 30 12 16 1016.4 1016.3 1.0
17/07:00am 20.4 20.7 18.7 90 1.1 SSE 15 20 8 11 1016.3 1016.2 1.0
17/06:30am 19.5 20.4 18.5 94 0.6 S 11 19 6 10 1016.3 1016.2 1.0
17/06:00am 19.2 20.5 18.4 95 0.5 S 9 13 5 7 1016.2 1016.1 1.0
17/05:30am 19.0 20.1 18.0 94 0.6 S 9 13 5 7 1015.8 1015.7 1.0
17/05:00am 19.1 19.9 18.1 94 0.6 S 11 15 6 8 1015.3 1015.2 1.0
17/04:30am 19.0 19.7 18.0 94 0.6 S 11 17 6 9 1014.7 1014.6 1.0
17/04:00am 19.1 19.5 18.1 94 0.6 S 13 19 7 10 1014.6 1014.5 1.0
17/03:30am 19.1 19.5 18.1 94 0.6 S 13 17 7 9 1014.7 1014.6 1.0
17/03:00am 19.1 19.9 18.1 94 0.6 S 11 15 6 8 1014.7 1014.6 1.0
17/02:30am 19.4 19.8 18.2 93 0.7 S 13 17 7 9 1014.9 1014.8 1.0
17/02:00am 19.6 19.7 18.4 93 0.7 S 15 24 8 13 1015.0 1014.9 1.0
17/01:30am 19.7 20.1 18.9 95 0.5 S 15 20 8 11 1015.2 1015.1 1.0
17/01:00am 19.6 20.3 18.9 96 0.4 S 13 19 7 10 1015.4 1015.3 1.0
17/12:30am 19.3 20.2 18.5 95 0.5 S 11 15 6 8 1015.3 1015.2 1.0
17/12:00am 19.4 20.8 18.6 95 0.5 S 9 13 5 7 1015.6 1015.5 1.0
 
Date/Time
EST
Temp
°C
App
Temp
°C
Dew
Point
°C
Rel
Hum
%
Delta-T
°C
Wind Press
QNH
hPa
Press
MSL
hPa
Rain since
9am
mm
Dir  Spd
km/h
Gust
km/h
Spd
kts
Gust
kts
16/11:30pm 19.5 20.4 18.5 94 0.6 S 11 13 6 7 1015.5 1015.4 1.0
16/11:00pm 19.6 20.9 18.4 93 0.7 S 9 15 5 8 1015.5 1015.4 1.0
16/10:46pm 19.6 20.1 18.4 93 0.7 S 13 17 7 9 1015.5 1015.4 1.0
16/10:30pm 19.6 20.8 18.3 92 0.8 S 9 15 5 8 1015.5 1015.4 1.0
16/10:00pm 19.8 20.2 18.1 90 1.1 SSE 13 17 7 9 1015.4 1015.3 1.0
16/09:56pm 19.9 20.3 18.2 90 1.1 SSE 13 17 7 9 1015.4 1015.3 1.0
16/09:30pm 20.0 20.4 18.1 89 1.2 SSE 13 17 7 9 1015.4 1015.3 1.0
16/09:00pm 20.3 19.6 18.2 88 1.3 SSE 19 24 10 13 1015.5 1015.4 1.0
16/08:30pm 20.7 20.5 18.5 87 1.4 SSE 17 20 9 11 1015.8 1015.7 1.0
16/08:00pm 20.7 19.5 18.3 86 1.5 SE 22 26 12 14 1015.3 1015.2 1.0
16/07:30pm 21.0 20.7 18.2 84 1.7 SE 17 22 9 12 1015.3 1015.2 1.0
16/07:00pm 21.4 20.3 17.8 80 2.2 SE 20 30 11 16 1015.0 1014.9 1.0
16/06:30pm 22.1 20.2 17.7 76 2.7 SE 24 28 13 15 1014.8 1014.7 1.0
16/06:00pm 22.4 21.2 17.5 74 3.0 SE 20 30 11 16 1014.6 1014.5 1.0
16/05:30pm 23.5 20.4 17.5 69 3.7 SE 30 37 16 20 1013.8 1013.7 1.0
16/05:00pm 24.2 21.9 18.4 70 3.7 SE 28 33 15 18 1013.8 1013.7 1.0
16/04:30pm 25.1 22.9 17.8 64 4.6 SE 26 33 14 18 1013.5 1013.4 1.0
16/04:00pm 25.2 22.7 17.1 60 5.0 SE 26 33 14 18 1013.2 1013.1 1.0
16/03:30pm 25.6 23.3 18.5 65 4.5 SE 28 41 15 22 1013.0 1012.9 1.0
16/03:00pm 26.2 24.6 18.3 61 5.0 ESE 24 32 13 17 1013.1 1013.0 1.0
16/02:30pm 24.2 24.7 20.1 78 2.7 E 17 20 9 11 1013.4 1013.3 1.0
16/02:00pm 24.3 24.3 18.9 72 3.4 ESE 17 24 9 13 1014.0 1013.9 0.8
16/01:49pm 23.3 22.2 18.6 75 3.0 SE 22 35 12 19 1014.0 1013.9 0.8
16/01:35pm 22.6 20.4 18.8 79 2.4 SE 28 37 15 20 1014.2 1014.1 0.8
16/01:30pm 22.4 20.6 17.8 75 2.9 ESE 24 37 13 20 1014.3 1014.2 0.4
16/01:00pm 25.9 23.7 17.8 61 5.1 SE 26 35 14 19 1014.2 1014.1 0.0
16/12:30pm 25.5 24.7 18.4 65 4.5 SE 20 35 11 19 1014.2 1014.1 0.0
16/12:00pm 26.8 25.7 17.3 56 6.0 ESE 19 30 10 16 1014.3 1014.2 0.0
16/11:30am 25.8 24.5 16.9 58 5.5 SE 19 26 10 14 1014.6 1014.5 0.0
16/11:00am 25.6 24.3 16.7 58 5.5 S 19 24 10 13 1014.7 1014.6 0.0
16/10:30am 25.2 24.0 17.1 60 5.0 SSE 19 26 10 14 1015.0 1014.9 0.0
16/10:00am 25.6 25.0 17.5 61 5.1 SSE 17 26 9 14 1015.2 1015.1 0.0
16/09:30am 24.8 24.4 18.0 66 4.3 S 17 26 9 14 1015.3 1015.2 0.0
16/09:00am 23.6 23.1 17.8 70 3.6 S 17 22 9 12 1015.6 1015.5 1.2
16/08:30am 22.4 22.4 18.0 76 2.7 SSW 15 20 8 11 1015.8 1015.7 1.2
16/08:19am 22.5 22.3 18.5 78 2.5 SSW 17 20 9 11 1015.7 1015.6 1.2
16/08:00am 21.5 21.8 17.9 80 2.2 SSW 13 20 7 11 1015.7 1015.6 1.2
16/07:30am 21.3 21.0 18.3 83 1.9 SSW 17 24 9 13 1015.3 1015.2 1.2
16/07:00am 20.4 20.2 18.5 89 1.2 SSW 17 22 9 12 1015.0 1014.9 1.2
16/06:30am 19.5 19.9 18.2 92 0.8 SSW 13 20 7 11 1014.8 1014.7 1.2
16/06:02am 18.7 19.0 17.9 95 0.5 SW 13 19 7 10 1014.5 1014.4 1.2
16/06:00am 18.6 18.9 17.8 95 0.5 SW 13 19 7 10 1014.4 1014.3 1.2
16/05:30am 18.3 19.1 17.3 94 0.6 SW 9 15 5 8 1013.9 1013.8 1.0
16/05:17am 18.3 18.3 17.1 93 0.7 SW 13 19 7 10 1013.7 1013.6 1.0
16/05:00am 18.4 18.4 17.2 93 0.7 SW 13 17 7 9 1013.5 1013.4 1.0
16/04:58am 18.4 18.4 17.2 93 0.7 SW 13 19 7 10 1013.5 1013.4 1.0
16/04:56am 18.3 18.3 17.3 94 0.6 SW 13 19 7 10 1013.5 1013.4 1.0
16/04:30am 18.2 17.8 17.2 94 0.6 SW 15 22 8 12 1013.0 1012.9 1.0
16/04:01am 18.0 17.6 17.2 95 0.5 SW 15 20 8 11 1012.7 1012.6 1.0
16/04:00am 18.1 18.1 17.3 95 0.5 SW 13 20 7 11 1012.7 1012.6 1.0
16/03:30am 18.0 17.5 16.9 93 0.7 SW 15 22 8 12 1012.8 1012.7 1.0
16/03:00am 19.2 18.0 16.2 83 1.8 SSW 17 24 9 13 1012.7 1012.6 1.0
16/02:30am 19.2 19.2 16.2 83 1.8 S 11 17 6 9 1012.9 1012.8 1.0
16/02:00am 20.3 19.0 15.7 75 2.7 SW 17 22 9 12 1012.9 1012.8 1.0
16/01:30am 20.4 19.1 15.8 75 2.7 WSW 17 20 9 11 1013.1 1013.0 1.0
16/01:00am 20.4 19.4 15.6 74 2.9 SW 15 20 8 11 1013.3 1013.2 1.0
16/12:30am 20.4 19.0 15.6 74 2.9 SW 17 24 9 13 1013.8 1013.7 1.0
16/12:00am 20.0 18.6 15.6 76 2.6 SW 17 26 9 14 1014.1 1014.0 1.0
 
Date/Time
EST
Temp
°C
App
Temp
°C
Dew
Point
°C
Rel
Hum
%
Delta-T
°C
Wind Press
QNH
hPa
Press
MSL
hPa
Rain since
9am
mm
Dir  Spd
km/h
Gust
km/h
Spd
kts
Gust
kts
15/11:30pm 19.5 18.5 15.6 78 2.3 SW 15 20 8 11 1014.6 1014.5 1.0
15/11:00pm 19.4 18.1 15.7 79 2.2 SW 17 24 9 13 1015.2 1015.1 1.0
15/10:30pm 18.9 18.7 15.8 82 1.8 WSW 11 15 6 8 1015.3 1015.2 1.0
15/10:00pm 19.3 19.7 16.2 82 1.9 SW 9 11 5 6 1015.6 1015.5 1.0
15/09:30pm 19.4 19.0 16.2 82 1.9 S 13 20 7 11 1015.8 1015.7 1.0
15/09:00pm 19.5 19.3 16.7 84 1.7 SSW 13 19 7 10 1015.9 1015.8 1.0
15/08:30pm 19.5 19.7 16.7 84 1.7 SSW 11 17 6 9 1015.9 1015.8 1.0
15/08:00pm 20.1 19.5 16.7 81 2.1 S 15 22 8 12 1015.7 1015.6 1.0
15/07:30pm 20.4 20.2 16.8 80 2.2 S 13 19 7 10 1015.4 1015.3 1.0
15/07:00pm 21.0 20.9 17.0 78 2.4 SSE 13 20 7 11 1014.8 1014.7 1.0
15/06:30pm 21.3 21.3 17.1 77 2.6 S 13 17 7 9 1014.5 1014.4 1.0
15/06:00pm 22.1 21.6 16.8 72 3.2 S 15 19 8 10 1014.0 1013.9 1.0
15/05:30pm 23.0 22.9 17.0 69 3.7 SSW 13 17 7 9 1013.8 1013.7 1.0
15/05:00pm 23.5 22.8 16.3 64 4.4 S 15 20 8 11 1013.5 1013.4 1.0
15/04:30pm 23.5 24.4 18.4 73 3.2 S 11 17 6 9 1013.4 1013.3 1.0
15/04:00pm 22.8 23.9 17.9 74 3.1 SSE 9 13 5 7 1013.3 1013.2 1.0
15/03:30pm 21.6 22.3 18.8 84 1.8 SE 13 22 7 12 1013.5 1013.4 1.0
15/03:00pm 21.9 24.8 18.3 80 2.3 CALM 0 6 0 3 1013.4 1013.3 1.0
15/02:30pm 21.5 22.6 17.9 80 2.2 SSE 9 17 5 9 1013.5 1013.4 0.8
15/02:00pm 23.5 22.6 16.8 66 4.1 SE 17 24 9 13 1013.5 1013.4 0.0
15/01:30pm 23.7 22.9 16.0 62 4.7 SSE 15 20 8 11 1013.6 1013.5 0.0
15/01:00pm 23.4 22.8 17.6 70 3.6 SSE 17 28 9 15 1014.1 1014.0 0.0
15/12:30pm 24.2 23.2 16.5 62 4.7 S 17 26 9 14 1014.0 1013.9 0.0
15/12:00pm 25.6 24.6 16.7 58 5.5 S 17 24 9 13 1014.3 1014.2 0.0
15/11:30am 23.6 21.6 15.6 61 4.8 SSW 20 35 11 19 1014.9 1014.8 0.0
15/11:00am 23.7 22.5 16.0 62 4.7 SSW 17 22 9 12 1015.5 1015.4 0.0
15/10:30am 23.0 21.2 16.1 65 4.2 S 20 32 11 17 1015.6 1015.5 0.0
15/10:00am 22.9 21.1 16.0 65 4.2 SSW 20 28 11 15 1015.6 1015.5 0.0
15/09:30am 22.4 21.1 15.7 66 4.0 SSW 17 26 9 14 1015.8 1015.7 0.0
15/09:00am 22.1 19.8 15.7 67 3.8 S 22 32 12 17 1015.8 1015.7 1.6
15/08:30am 21.7 19.9 15.5 68 3.7 SSW 19 26 10 14 1015.6 1015.5 1.6
15/08:00am 20.9 20.1 16.1 74 2.9 SSW 15 20 8 11 1015.5 1015.4 1.6
15/07:30am 20.3 19.9 16.3 78 2.4 SW 13 20 7 11 1015.5 1015.4 1.6
15/07:00am 18.7 17.3 15.6 82 1.8 SW 17 22 9 12 1015.3 1015.2 1.6
15/06:30am 17.9 16.4 15.3 85 1.5 SW 17 26 9 14 1015.3 1015.2 1.6
15/06:00am 17.5 16.3 15.0 85 1.5 SW 15 24 8 13 1014.9 1014.8 1.6
15/05:30am 17.3 15.7 14.9 86 1.4 SW 17 26 9 14 1014.7 1014.6 1.6
15/05:00am 16.9 15.6 14.7 87 1.3 SW 15 22 8 12 1014.7 1014.6 1.6
15/04:30am 17.0 15.3 14.8 87 1.3 SW 17 22 9 12 1014.4 1014.3 1.6

Other Formats:

Comma delimited format used in spreadsheet applications
http://www.bom.gov.au/fwo/IDQ60801/IDQ60801.94387.axf

JavaScript Object Notation format (JSON) in row-major order
http://www.bom.gov.au/fwo/IDQ60801/IDQ60801.94387.json